createdAt,value
2023-01-29T00:00:06.015Z,81.84
2023-01-29T00:02:32.316Z,81.84
2023-01-29T00:04:59.142Z,81.80
2023-01-29T00:07:25.597Z,80.98
2023-01-29T00:09:51.911Z,80.48
2023-01-29T00:12:18.258Z,80.43
2023-01-29T00:14:44.572Z,80.74
2023-01-29T00:17:10.939Z,81.02
2023-01-29T00:19:37.314Z,80.87
2023-01-29T00:22:03.751Z,80.54
2023-01-29T00:24:30.162Z,80.46
2023-01-29T00:26:56.495Z,80.31
2023-01-29T00:29:22.811Z,80.71
2023-01-29T00:31:49.389Z,81.16
2023-01-29T00:34:15.926Z,81.35
2023-01-29T00:36:42.327Z,81.58
2023-01-29T00:39:08.666Z,81.50
2023-01-29T00:41:34.974Z,81.40
2023-01-29T00:44:01.783Z,81.09
2023-01-29T00:46:28.293Z,81.22
2023-01-29T00:48:54.682Z,81.12
2023-01-29T00:51:20.997Z,80.97
2023-01-29T00:53:47.316Z,80.40
2023-01-29T00:56:13.623Z,80.14
2023-01-29T00:58:39.923Z,80.36
2023-01-29T01:01:06.243Z,80.46
2023-01-29T01:03:32.560Z,80.33
2023-01-29T01:06:06.284Z,80.44
2023-01-29T01:08:33.005Z,80.46
2023-01-29T01:11:04.994Z,81.24
2023-01-29T01:13:32.978Z,81.36
2023-01-29T01:15:59.964Z,81.36
2023-01-29T01:18:29.922Z,81.50
2023-01-29T01:20:59.353Z,81.14
2023-01-29T01:23:25.784Z,81.01
2023-01-29T01:25:52.099Z,81.10
2023-01-29T01:28:18.414Z,81.17
2023-01-29T01:30:44.736Z,81.54
2023-01-29T01:33:11.148Z,81.62
2023-01-29T01:35:39.097Z,81.56
2023-01-29T01:38:05.418Z,81.57
2023-01-29T01:40:31.961Z,81.65
2023-01-29T01:42:59.960Z,81.50
2023-01-29T01:45:35.267Z,80.83
2023-01-29T01:48:04.639Z,80.39
2023-01-29T01:51:03.360Z,80.58
2023-01-29T01:53:39.776Z,80.26
2023-01-29T01:56:11.235Z,80.41
2023-01-29T01:58:43.229Z,80.07
2023-01-29T02:01:11.188Z,79.92
2023-01-29T02:03:44.415Z,80.17
2023-01-29T02:06:11.433Z,80.21
2023-01-29T02:08:49.693Z,80.14
2023-01-29T02:11:19.741Z,80.04
2023-01-29T02:13:50.046Z,80.44
2023-01-29T02:16:16.342Z,80.35
2023-01-29T02:18:46.156Z,80.10
2023-01-29T02:21:31.292Z,80.16
2023-01-29T02:24:11.318Z,80.17
2023-01-29T02:26:48.354Z,79.87
2023-01-29T02:29:43.826Z,79.70
2023-01-29T02:32:31.526Z,79.88
2023-01-29T02:35:00.919Z,79.93
2023-01-29T02:37:36.050Z,79.99
2023-01-29T02:40:14.641Z,80.46
2023-01-29T02:43:07.888Z,80.43
2023-01-29T02:45:50.254Z,80.21
2023-01-29T02:48:20.480Z,80.62
2023-01-29T02:50:59.323Z,80.47
2023-01-29T02:53:32.826Z,80.85
2023-01-29T02:56:10.299Z,80.58
2023-01-29T02:58:42.692Z,80.44
2023-01-29T03:03:40.517Z,81.23
2023-01-29T03:06:15.164Z,81.54
2023-01-29T03:08:43.230Z,81.14
2023-01-29T03:11:14.719Z,80.59
2023-01-29T03:14:05.551Z,80.45
2023-01-29T03:16:44.776Z,80.59
2023-01-29T03:19:14.061Z,81.00
2023-01-29T03:21:47.748Z,81.52
2023-01-29T03:24:16.222Z,81.39
2023-01-29T03:26:43.811Z,81.27
2023-01-29T03:29:12.282Z,81.14
2023-01-29T03:31:38.768Z,81.21
2023-01-29T03:34:13.672Z,80.79
2023-01-29T03:36:46.743Z,80.15
2023-01-29T03:39:15.289Z,80.14
2023-01-29T03:42:03.159Z,80.99
2023-01-29T03:44:48.064Z,80.86
2023-01-29T03:47:47.773Z,80.55
2023-01-29T03:50:40.568Z,80.42
2023-01-29T03:53:29.982Z,80.63
2023-01-29T03:56:04.509Z,80.33
2023-01-29T03:58:39.383Z,80.17
2023-01-29T04:01:11.441Z,80.54
2023-01-29T04:03:41.988Z,80.13
2023-01-29T04:06:20.408Z,80.73
2023-01-29T04:09:03.252Z,80.70
2023-01-29T04:11:31.035Z,80.38
2023-01-29T04:13:58.194Z,80.28
2023-01-29T04:16:38.966Z,80.31
2023-01-29T04:19:05.968Z,80.76
2023-01-29T04:21:32.627Z,80.76
2023-01-29T04:23:58.980Z,81.09
2023-01-29T04:26:42.346Z,81.03
2023-01-29T04:29:14.403Z,80.84
2023-01-29T04:31:55.616Z,80.50
2023-01-29T04:34:41.756Z,80.95
2023-01-29T04:37:23.087Z,81.41
2023-01-29T04:39:58.820Z,81.23
2023-01-29T04:42:40.315Z,81.66
2023-01-29T04:45:28.724Z,81.84
2023-01-29T04:48:04.104Z,81.42
2023-01-29T04:50:42.005Z,81.40
2023-01-29T04:53:20.537Z,82.36
2023-01-29T04:55:55.052Z,82.11
2023-01-29T04:58:36.974Z,82.28
2023-01-29T05:01:06.667Z,82.58
2023-01-29T05:03:36.215Z,82.11
2023-01-29T05:06:03.935Z,81.95
2023-01-29T05:08:32.537Z,80.97
2023-01-29T05:10:59.607Z,80.54
2023-01-29T05:13:28.721Z,80.19
2023-01-29T05:16:16.962Z,80.00
2023-01-29T05:18:43.445Z,80.78
2023-01-29T05:21:09.990Z,81.32
2023-01-29T05:23:36.842Z,80.93
2023-01-29T05:26:03.727Z,80.29
2023-01-29T05:28:30.230Z,80.46
2023-01-29T05:30:57.576Z,80.12
2023-01-29T05:33:29.306Z,80.51
2023-01-29T05:35:58.084Z,80.71
2023-01-29T05:38:24.860Z,80.69
2023-01-29T05:40:51.264Z,81.22
2023-01-29T05:43:23.528Z,80.51
2023-01-29T05:45:58.415Z,80.58
2023-01-29T05:48:26.664Z,80.80
2023-01-29T05:50:53.013Z,80.66
2023-01-29T05:53:19.402Z,80.79
2023-01-29T05:55:48.609Z,80.52
2023-01-29T05:58:14.964Z,80.87
2023-01-29T06:00:41.541Z,81.17
2023-01-29T06:03:11.940Z,81.17
2023-01-29T06:05:43.238Z,81.61
2023-01-29T06:08:11.736Z,81.35
2023-01-29T06:10:38.141Z,81.19
2023-01-29T06:13:04.554Z,81.74
2023-01-29T06:15:30.864Z,81.50
2023-01-29T06:17:57.407Z,81.83
2023-01-29T06:20:24.448Z,81.88
2023-01-29T06:22:50.808Z,82.11
2023-01-29T06:25:17.209Z,82.46
2023-01-29T06:27:43.511Z,81.98
2023-01-29T06:30:10.392Z,82.67
2023-01-29T06:32:36.782Z,82.56
2023-01-29T06:35:03.446Z,82.49
2023-01-29T06:37:29.771Z,82.54
2023-01-29T06:39:56.095Z,82.41
2023-01-29T06:42:22.383Z,82.97
2023-01-29T06:44:48.696Z,82.82
2023-01-29T06:47:15.051Z,83.18
2023-01-29T06:49:41.433Z,83.54
2023-01-29T06:52:07.718Z,84.34
2023-01-29T06:54:34.044Z,84.61
2023-01-29T06:57:00.345Z,85.31
2023-01-29T06:59:26.653Z,85.11
2023-01-29T07:01:53.008Z,85.06
2023-01-29T07:04:19.428Z,85.29
2023-01-29T07:06:45.807Z,84.94
2023-01-29T07:09:13.144Z,85.50
2023-01-29T07:11:40.147Z,85.76
2023-01-29T07:14:06.766Z,85.84
2023-01-29T07:16:33.318Z,85.80
2023-01-29T07:18:59.690Z,85.97
2023-01-29T07:21:26.034Z,86.20
2023-01-29T07:23:53.359Z,86.08
2023-01-29T07:26:20.239Z,85.81
2023-01-29T07:28:46.814Z,85.78
2023-01-29T07:31:14.010Z,86.23
2023-01-29T07:33:42.804Z,85.76
2023-01-29T07:36:10.465Z,85.56
2023-01-29T07:38:37.378Z,85.19
2023-01-29T07:41:03.915Z,84.86
2023-01-29T07:43:31.960Z,84.94
2023-01-29T07:46:02.424Z,84.78
2023-01-29T07:48:28.774Z,84.38
2023-01-29T07:50:56.460Z,85.11
2023-01-29T07:53:22.959Z,85.06
2023-01-29T07:55:49.293Z,84.98
2023-01-29T07:58:15.628Z,85.08
2023-01-29T08:00:41.969Z,84.21
2023-01-29T08:03:12.437Z,83.93
2023-01-29T08:05:38.775Z,83.60
2023-01-29T08:08:07.334Z,82.99
2023-01-29T08:10:38.340Z,82.94
2023-01-29T08:13:05.661Z,82.32
2023-01-29T08:15:32.368Z,81.86
2023-01-29T08:17:58.865Z,81.33
2023-01-29T08:20:25.617Z,81.97
2023-01-29T08:22:59.173Z,82.48
2023-01-29T08:25:25.809Z,82.65
2023-01-29T08:27:52.343Z,82.44
2023-01-29T08:30:18.746Z,82.71
2023-01-29T08:32:45.092Z,82.41
2023-01-29T08:35:11.400Z,82.70
2023-01-29T08:37:37.740Z,82.38
2023-01-29T08:40:04.521Z,82.94
2023-01-29T08:42:30.851Z,82.25
2023-01-29T08:44:57.163Z,82.42
2023-01-29T08:47:23.468Z,82.56
2023-01-29T08:49:49.786Z,82.43
2023-01-29T08:52:16.100Z,82.22
2023-01-29T08:54:42.419Z,81.83
2023-01-29T08:57:08.755Z,81.88
2023-01-29T08:59:35.080Z,80.56
2023-01-29T09:02:01.567Z,79.95
2023-01-29T09:04:27.974Z,79.20
2023-01-29T09:06:54.477Z,78.82
2023-01-29T09:09:20.819Z,78.11
2023-01-29T09:11:47.118Z,77.36
2023-01-29T09:14:13.411Z,77.00
2023-01-29T09:16:39.843Z,77.44
2023-01-29T09:19:06.153Z,78.00
2023-01-29T09:21:32.742Z,77.79
2023-01-29T09:23:59.068Z,77.56
2023-01-29T09:26:25.609Z,76.71
2023-01-29T09:28:51.930Z,76.81
2023-01-29T09:31:18.359Z,77.09
2023-01-29T09:33:44.740Z,77.02
2023-01-29T09:36:11.036Z,77.08
2023-01-29T09:38:37.358Z,76.82
2023-01-29T09:41:19.209Z,75.30
2023-01-29T09:43:57.250Z,76.03
2023-01-29T09:46:35.316Z,76.73
2023-01-29T09:49:08.825Z,76.34
2023-01-29T09:51:41.660Z,76.64
2023-01-29T09:54:25.772Z,77.47
2023-01-29T09:56:57.193Z,76.94
2023-01-29T09:59:27.387Z,77.66
2023-01-29T10:02:31.097Z,77.42
2023-01-29T10:05:12.119Z,76.56
2023-01-29T10:08:03.477Z,76.98
2023-01-29T10:10:44.100Z,76.27
2023-01-29T10:13:41.648Z,75.90
2023-01-29T10:16:41.499Z,75.55
2023-01-29T10:19:41.072Z,75.64
2023-01-29T10:22:45.236Z,76.33
2023-01-29T10:25:15.777Z,76.20
2023-01-29T10:27:48.413Z,75.75
2023-01-29T10:30:33.012Z,75.51
2023-01-29T10:33:03.689Z,75.90
2023-01-29T10:35:34.001Z,76.01
2023-01-29T10:38:18.441Z,75.65
2023-01-29T10:40:55.798Z,76.13
2023-01-29T10:43:54.266Z,76.99
2023-01-29T10:46:46.402Z,76.90
2023-01-29T10:49:35.261Z,76.94
2023-01-29T10:52:15.892Z,77.23
2023-01-29T10:55:07.879Z,76.73
2023-01-29T10:58:17.919Z,77.18
2023-01-29T11:00:44.303Z,77.47
2023-01-29T11:03:29.238Z,77.16
2023-01-29T11:05:55.673Z,76.66
2023-01-29T11:08:26.787Z,76.34
2023-01-29T11:11:09.329Z,76.52
2023-01-29T11:13:58.929Z,76.84
2023-01-29T11:16:29.753Z,76.91
2023-01-29T11:18:59.164Z,77.03
2023-01-29T11:21:27.466Z,77.11
2023-01-29T11:24:14.667Z,76.96
2023-01-29T11:26:43.433Z,77.24
2023-01-29T11:29:28.791Z,76.58
2023-01-29T11:31:56.708Z,76.69
2023-01-29T11:34:24.899Z,77.42
2023-01-29T11:36:59.201Z,76.93
2023-01-29T11:39:27.453Z,76.89
2023-01-29T11:42:01.895Z,77.17
2023-01-29T11:44:31.529Z,76.75
2023-01-29T11:47:11.341Z,77.18
2023-01-29T11:49:38.971Z,76.97
2023-01-29T11:52:08.920Z,77.14
2023-01-29T11:54:49.043Z,76.80
2023-01-29T11:57:35.553Z,76.63
2023-01-29T12:00:06.980Z,76.95
2023-01-29T12:02:41.844Z,77.04
2023-01-29T12:05:15.984Z,77.20
2023-01-29T12:07:45.151Z,77.13
2023-01-29T12:10:31.194Z,77.14
2023-01-29T12:13:09.421Z,76.74
2023-01-29T12:15:37.220Z,76.88
2023-01-29T12:18:18.626Z,77.66
2023-01-29T12:20:47.698Z,77.52
2023-01-29T12:23:41.334Z,76.73
2023-01-29T12:26:13.084Z,76.65
2023-01-29T12:28:53.916Z,77.23
2023-01-29T12:31:29.198Z,76.83
2023-01-29T12:34:26.831Z,76.59
2023-01-29T12:37:02.813Z,76.83
2023-01-29T12:39:29.154Z,75.63
2023-01-29T12:42:04.649Z,75.66
2023-01-29T12:44:36.738Z,75.58
2023-01-29T12:47:07.304Z,75.25
2023-01-29T12:49:38.924Z,75.02
2023-01-29T12:52:15.834Z,75.00
2023-01-29T12:54:49.942Z,75.18
2023-01-29T12:57:25.558Z,75.91
2023-01-29T13:00:19.258Z,76.04
2023-01-29T13:03:08.676Z,76.02
2023-01-29T13:05:48.595Z,75.41
2023-01-29T13:08:20.776Z,75.14
2023-01-29T13:10:53.617Z,75.04
2023-01-29T13:13:32.847Z,75.23
2023-01-29T13:16:00.212Z,75.64
2023-01-29T13:18:41.446Z,75.55
2023-01-29T13:21:13.617Z,75.79
2023-01-29T13:23:47.781Z,75.64
2023-01-29T13:26:18.384Z,75.78
2023-01-29T13:28:45.346Z,76.01
2023-01-29T13:31:13.494Z,76.18
2023-01-29T13:33:43.108Z,75.66
2023-01-29T13:36:24.031Z,76.12
2023-01-29T13:39:01.902Z,76.38
2023-01-29T13:41:41.772Z,76.40
2023-01-29T13:44:28.011Z,76.77
2023-01-29T13:47:03.721Z,76.92
2023-01-29T13:49:47.575Z,76.12
2023-01-29T13:52:21.229Z,76.40
2023-01-29T13:54:55.610Z,76.66
2023-01-29T13:57:35.362Z,76.92
2023-01-29T14:00:01.767Z,76.36
2023-01-29T14:02:29.679Z,75.95
2023-01-29T14:05:30.437Z,76.53
2023-01-29T14:08:01.994Z,76.89
2023-01-29T14:10:30.743Z,76.78
2023-01-29T14:13:15.511Z,76.23
2023-01-29T14:15:41.837Z,76.36
2023-01-29T14:18:08.112Z,77.11
2023-01-29T14:20:53.069Z,76.89
2023-01-29T14:23:33.480Z,77.13
2023-01-29T14:26:02.042Z,77.17
2023-01-29T14:28:30.736Z,76.93
2023-01-29T14:30:57.315Z,77.03
2023-01-29T14:33:41.175Z,77.40
2023-01-29T14:36:13.342Z,77.67
2023-01-29T14:38:47.617Z,77.48
2023-01-29T14:41:29.173Z,77.34
2023-01-29T14:44:33.059Z,77.69
2023-01-29T14:46:59.437Z,77.36
2023-01-29T14:49:48.683Z,77.31
2023-01-29T14:52:16.555Z,77.96
2023-01-29T14:54:43.301Z,77.64
2023-01-29T14:57:14.860Z,78.00
2023-01-29T14:59:57.656Z,77.92
2023-01-29T15:02:37.704Z,77.27
2023-01-29T15:05:11.283Z,77.31
2023-01-29T15:08:00.559Z,77.18
2023-01-29T15:10:55.835Z,77.77
2023-01-29T15:13:41.907Z,78.31
2023-01-29T15:16:17.468Z,78.54
2023-01-29T15:18:43.854Z,79.09
2023-01-29T15:21:19.108Z,78.87
2023-01-29T15:23:46.630Z,78.92
2023-01-29T15:26:19.630Z,78.64
2023-01-29T15:29:02.141Z,78.57
2023-01-29T15:31:30.341Z,78.92
2023-01-29T15:33:56.939Z,79.54
2023-01-29T15:36:28.137Z,79.59
2023-01-29T15:39:26.882Z,79.26
2023-01-29T15:42:11.983Z,79.22
2023-01-29T15:44:44.882Z,79.43
2023-01-29T15:47:12.565Z,79.69
2023-01-29T15:49:40.231Z,80.06
2023-01-29T15:52:17.883Z,79.95
2023-01-29T15:54:44.595Z,79.64
2023-01-29T15:57:21.335Z,80.06
2023-01-29T15:59:48.151Z,79.93
2023-01-29T16:02:35.632Z,80.27
2023-01-29T16:05:03.486Z,80.31
2023-01-29T16:07:30.074Z,80.61
2023-01-29T16:09:57.441Z,80.02
2023-01-29T16:12:24.297Z,80.52
2023-01-29T16:14:51.319Z,80.01
2023-01-29T16:17:30.872Z,80.22
2023-01-29T16:20:02.520Z,80.05
2023-01-29T16:22:35.194Z,80.07
2023-01-29T16:25:04.125Z,80.49
2023-01-29T16:27:31.631Z,80.22
2023-01-29T16:29:58.235Z,80.32
2023-01-29T16:32:24.605Z,80.64
2023-01-29T16:34:57.203Z,80.54
2023-01-29T16:37:27.836Z,80.70
2023-01-29T16:39:54.811Z,80.80
2023-01-29T16:42:31.458Z,80.44
2023-01-29T16:45:02.189Z,80.70
2023-01-29T16:47:34.773Z,80.40
2023-01-29T16:50:22.875Z,80.34
2023-01-29T16:53:22.178Z,80.25
2023-01-29T16:55:52.311Z,80.76
2023-01-29T16:58:26.439Z,80.49
2023-01-29T17:00:56.321Z,80.62
2023-01-29T17:03:27.158Z,79.93
2023-01-29T17:05:53.968Z,80.10
2023-01-29T17:08:32.156Z,80.23
2023-01-29T17:10:59.754Z,80.04
2023-01-29T17:13:41.589Z,79.59
2023-01-29T17:16:23.091Z,79.84
2023-01-29T17:18:49.568Z,80.14
2023-01-29T17:21:15.926Z,80.08
2023-01-29T17:23:42.266Z,80.15
2023-01-29T17:26:12.650Z,80.21
2023-01-29T17:28:40.605Z,79.70
2023-01-29T17:31:07.450Z,79.98
2023-01-29T17:33:35.794Z,80.40
2023-01-29T17:36:02.177Z,80.48
2023-01-29T17:38:28.556Z,80.74
2023-01-29T17:41:23.503Z,81.35
2023-01-29T17:43:49.822Z,81.16
2023-01-29T17:46:17.600Z,81.83
2023-01-29T17:48:44.815Z,82.54
2023-01-29T17:51:13.676Z,83.45
2023-01-29T17:53:46.068Z,84.40
2023-01-29T17:56:24.408Z,85.41
2023-01-29T17:58:50.709Z,86.07
2023-01-29T18:01:16.996Z,86.88
2023-01-29T18:03:43.394Z,87.70
2023-01-29T18:06:11.612Z,88.59
2023-01-29T18:08:39.624Z,88.92
2023-01-29T18:11:11.153Z,90.11
2023-01-29T18:13:37.421Z,90.50
2023-01-29T18:16:03.871Z,91.14
2023-01-29T18:18:30.208Z,91.66
2023-01-29T18:20:56.513Z,91.65
2023-01-29T18:23:22.822Z,92.05
2023-01-29T18:25:49.166Z,92.54
2023-01-29T18:28:17.255Z,93.18
2023-01-29T18:30:45.160Z,92.82
2023-01-29T18:33:11.525Z,93.26
2023-01-29T18:35:37.850Z,92.93
2023-01-29T18:38:04.153Z,93.58
2023-01-29T18:40:31.483Z,94.01
2023-01-29T18:42:57.899Z,93.97
2023-01-29T18:45:24.215Z,93.73
2023-01-29T18:47:50.517Z,93.51
2023-01-29T18:50:16.960Z,93.74
2023-01-29T18:52:44.075Z,93.60
2023-01-29T18:55:10.495Z,93.68
2023-01-29T18:58:27.466Z,93.64
2023-01-29T19:00:23.839Z,93.56
2023-01-29T19:02:50.245Z,93.65
2023-01-29T19:05:17.185Z,93.61
2023-01-29T19:07:43.719Z,93.54
2023-01-29T19:10:10.664Z,93.75
2023-01-29T19:12:37.001Z,93.64
2023-01-29T19:15:03.469Z,94.00
2023-01-29T19:17:29.866Z,93.82
2023-01-29T19:19:56.237Z,93.96
2023-01-29T19:22:22.608Z,94.17
2023-01-29T19:24:48.923Z,94.44
2023-01-29T19:27:15.215Z,94.98
2023-01-29T19:29:41.546Z,94.75
2023-01-29T19:32:07.832Z,94.94
2023-01-29T19:34:34.191Z,94.65
2023-01-29T19:37:00.492Z,95.48
2023-01-29T19:39:26.800Z,95.33
2023-01-29T19:41:53.111Z,95.47
2023-01-29T19:44:19.427Z,95.30
2023-01-29T19:46:45.728Z,95.33
2023-01-29T19:49:12.120Z,95.25
2023-01-29T19:51:38.432Z,95.07
2023-01-29T19:54:04.744Z,94.90
2023-01-29T19:56:31.109Z,94.63
2023-01-29T19:58:57.492Z,94.53
2023-01-29T20:01:24.091Z,95.17
2023-01-29T20:03:51.005Z,95.34
2023-01-29T20:06:22.057Z,95.34
2023-01-29T20:08:48.380Z,94.94
2023-01-29T20:11:16.470Z,95.08
2023-01-29T20:13:43.138Z,95.13
2023-01-29T20:16:09.503Z,94.89
2023-01-29T20:18:35.828Z,94.95
2023-01-29T20:21:07.296Z,94.36
2023-01-29T20:23:38.108Z,94.05
2023-01-29T20:26:06.430Z,93.89
2023-01-29T20:28:33.004Z,93.26
2023-01-29T20:30:59.390Z,92.83
2023-01-29T20:33:26.465Z,92.53
2023-01-29T20:35:54.549Z,92.46
2023-01-29T20:38:21.067Z,92.67
2023-01-29T20:40:47.355Z,92.76
2023-01-29T20:43:13.680Z,92.70
2023-01-29T20:45:40.097Z,92.08
2023-01-29T20:48:06.776Z,91.96
2023-01-29T20:50:34.544Z,92.21
2023-01-29T20:53:01.353Z,92.08
2023-01-29T20:55:27.999Z,91.55
2023-01-29T20:58:06.446Z,91.67
2023-01-29T21:00:33.430Z,92.05
2023-01-29T21:02:59.819Z,92.21
2023-01-29T21:05:26.146Z,92.45
2023-01-29T21:07:52.474Z,91.79
2023-01-29T21:10:19.155Z,91.67
2023-01-29T21:12:45.560Z,91.06
2023-01-29T21:15:11.862Z,91.24
2023-01-29T21:17:38.252Z,91.84
2023-01-29T21:20:04.888Z,92.06
2023-01-29T21:22:31.522Z,91.47
2023-01-29T21:24:57.849Z,91.19
2023-01-29T21:27:25.029Z,91.16
2023-01-29T21:29:51.502Z,91.50
2023-01-29T21:32:17.880Z,91.29
2023-01-29T21:34:44.307Z,91.50
2023-01-29T21:37:10.652Z,91.40
2023-01-29T21:39:36.978Z,91.77
2023-01-29T21:42:03.464Z,91.56
2023-01-29T21:44:29.933Z,91.71
2023-01-29T21:46:56.390Z,91.64
2023-01-29T21:49:23.199Z,91.54
2023-01-29T21:51:49.551Z,91.70
2023-01-29T21:54:16.133Z,91.65
2023-01-29T21:56:42.566Z,90.73
2023-01-29T21:59:09.265Z,91.19
2023-01-29T22:01:36.928Z,91.48
2023-01-29T22:04:04.729Z,91.92
2023-01-29T22:06:31.035Z,91.67
2023-01-29T22:08:57.507Z,91.72
2023-01-29T22:11:23.941Z,91.52
2023-01-29T22:13:50.250Z,91.29
2023-01-29T22:16:16.543Z,90.83
2023-01-29T22:18:42.859Z,91.30
2023-01-29T22:21:09.203Z,90.83
2023-01-29T22:23:35.541Z,90.47
2023-01-29T22:26:06.473Z,90.76
2023-01-29T22:28:32.854Z,90.51
2023-01-29T22:31:03.000Z,90.69
2023-01-29T22:33:29.308Z,90.07
2023-01-29T22:35:56.309Z,90.15
2023-01-29T22:38:23.253Z,89.85
2023-01-29T22:40:54.023Z,89.98
2023-01-29T22:43:20.883Z,90.30
2023-01-29T22:45:47.302Z,90.63
2023-01-29T22:48:14.304Z,90.77
2023-01-29T22:50:40.949Z,90.71
2023-01-29T22:53:07.375Z,90.74
2023-01-29T22:55:33.681Z,90.18
2023-01-29T22:58:00.684Z,90.04
2023-01-29T23:00:26.998Z,90.35
2023-01-29T23:02:53.298Z,90.57
2023-01-29T23:05:19.586Z,90.84
2023-01-29T23:07:45.946Z,90.81
2023-01-29T23:10:16.212Z,90.88
2023-01-29T23:12:42.722Z,91.04
2023-01-29T23:15:09.333Z,90.97
2023-01-29T23:17:35.664Z,90.93
2023-01-29T23:20:01.976Z,91.04
2023-01-29T23:22:28.352Z,90.76
2023-01-29T23:24:54.656Z,91.02
2023-01-29T23:27:21.011Z,90.97
2023-01-29T23:29:48.386Z,91.34
2023-01-29T23:32:17.710Z,91.56
2023-01-29T23:34:44.040Z,91.73
2023-01-29T23:37:10.341Z,91.31
2023-01-29T23:39:36.717Z,90.99
2023-01-29T23:42:03.451Z,91.25
2023-01-29T23:44:29.781Z,91.68
2023-01-29T23:46:56.115Z,91.94
2023-01-29T23:49:22.617Z,91.78
2023-01-29T23:51:49.894Z,92.03
2023-01-29T23:54:17.167Z,91.85
2023-01-29T23:56:44.376Z,91.74
2023-01-29T23:59:11.069Z,91.98
